Time;durP1;ratioP1;P1;durP2;ratioP2;P2;SDS_P1;SDS_P2;PMS_P1;PMS_P2;Temp;Humidity;BMP_temperature;BMP_pressure;BME280_temperature;BME280_humidity;BME280_pressure;Samples;Min_cycle;Max_cycle;Signal;HPM_P1;HPM_P2
2023/10/28 00:00:17;;;;;;;8.10;2.25;;;9.30;99.90;;;;;;5021905;28;20120;-79
2023/10/28 00:02:43;;;;;;;8.57;3.03;;;9.30;99.90;;;;;;5018347;28;20093;-78
2023/10/28 00:05:09;;;;;;;6.35;2.03;;;9.30;99.90;;;;;;5023626;28;20149;-79
2023/10/28 00:07:35;;;;;;;8.25;2.63;;;9.30;99.90;;;;;;5023956;28;20057;-78
2023/10/28 00:10:02;;;;;;;10.13;2.33;;;9.30;99.90;;;;;;5025629;28;20037;-78
2023/10/28 00:12:28;;;;;;;5.03;2.33;;;9.40;99.90;;;;;;5019419;28;20033;-78
2023/10/28 00:14:54;;;;;;;10.50;2.88;;;9.30;99.90;;;;;;5021283;28;20045;-78
2023/10/28 00:17:19;;;;;;;7.82;2.40;;;9.30;99.90;;;;;;5041586;28;20048;-76
2023/10/28 00:19:46;;;;;;;7.25;1.80;;;9.40;99.90;;;;;;5053013;28;20844;-78
2023/10/28 00:22:12;;;;;;;6.38;2.35;;;9.40;99.90;;;;;;5033278;28;20051;-77
2023/10/28 00:24:40;;;;;;;11.73;3.53;;;9.40;99.90;;;;;;5028217;28;20051;-79
2023/10/28 00:27:05;;;;;;;6.45;2.15;;;9.40;99.90;;;;;;5040065;28;20060;-76
2023/10/28 00:29:31;;;;;;;7.93;2.10;;;9.50;99.90;;;;;;5033375;28;20045;-79
2023/10/28 00:31:56;;;;;;;15.98;3.15;;;9.50;99.90;;;;;;5026926;28;20056;-77
2023/10/28 00:34:22;;;;;;;14.15;3.03;;;9.50;99.90;;;;;;5050872;28;20033;-78
2023/10/28 00:36:47;;;;;;;7.25;1.65;;;9.50;99.90;;;;;;5025542;28;20033;-77
2023/10/28 00:39:13;;;;;;;7.90;2.85;;;9.50;99.90;;;;;;5054427;28;20151;-79
2023/10/28 00:41:39;;;;;;;8.95;2.35;;;9.60;99.90;;;;;;5039366;28;20490;-77
2023/10/28 00:44:05;;;;;;;7.93;2.08;;;9.60;99.90;;;;;;5040962;28;20037;-81
2023/10/28 00:46:31;;;;;;;10.05;2.63;;;9.60;99.90;;;;;;5026138;28;20082;-77
2023/10/28 00:48:57;;;;;;;9.65;3.38;;;9.70;99.90;;;;;;5030419;28;20448;-77
2023/10/28 00:51:23;;;;;;;13.93;2.88;;;9.70;99.90;;;;;;5015694;28;20141;-77
2023/10/28 00:53:49;;;;;;;7.65;2.45;;;9.70;99.90;;;;;;5027973;28;20029;-78
2023/10/28 00:56:17;;;;;;;8.02;2.80;;;9.80;99.90;;;;;;5034322;28;20029;-81
2023/10/28 00:58:44;;;;;;;6.10;1.92;;;9.80;99.90;;;;;;5046932;28;20031;-78
2023/10/28 01:01:12;;;;;;;13.82;2.63;;;9.80;99.90;;;;;;5028214;28;20141;-76
2023/10/28 01:03:40;;;;;;;9.40;2.88;;;9.80;99.90;;;;;;5032332;28;20037;-78
2023/10/28 01:06:09;;;;;;;12.02;2.47;;;9.80;99.90;;;;;;5051671;28;20128;-79
2023/10/28 01:08:35;;;;;;;8.45;3.22;;;9.90;99.90;;;;;;5037748;28;20045;-79
2023/10/28 01:11:01;;;;;;;7.57;3.03;;;9.90;99.90;;;;;;5055370;28;20490;-76
2023/10/28 01:13:27;;;;;;;9.45;3.38;;;9.90;99.90;;;;;;5050460;28;20038;-77
2023/10/28 01:15:53;;;;;;;9.82;3.28;;;9.90;99.90;;;;;;5025516;28;20043;-80
2023/10/28 01:18:18;;;;;;;11.40;3.42;;;9.90;99.90;;;;;;5024066;28;20073;-79
2023/10/28 01:20:49;;;;;;;8.68;2.67;;;10.00;99.90;;;;;;5008608;28;20038;-77
2023/10/28 01:23:15;;;;;;;8.70;2.47;;;10.00;99.90;;;;;;5025373;28;20049;-79
2023/10/28 01:25:40;;;;;;;7.68;2.85;;;10.00;99.90;;;;;;5024989;28;20042;-79
2023/10/28 01:28:08;;;;;;;14.25;4.03;;;10.00;99.90;;;;;;5021020;28;20090;-78
2023/10/28 01:30:33;;;;;;;8.13;3.38;;;10.00;99.90;;;;;;5020820;28;20041;-78
2023/10/28 01:35:34;;;;;;;13.55;3.90;;;10.00;99.90;;;;;;5266474;23;20065;-72
2023/10/28 01:38:00;;;;;;;10.38;3.00;;;10.00;99.90;;;;;;5011719;28;20389;-74
2023/10/28 01:40:26;;;;;;;15.93;4.10;;;10.00;99.90;;;;;;5025783;28;20106;-72
2023/10/28 01:42:51;;;;;;;14.52;3.60;;;10.10;99.90;;;;;;4985131;28;20041;-73
2023/10/28 01:45:17;;;;;;;11.52;3.83;;;10.10;99.90;;;;;;5009583;28;20023;-74
2023/10/28 01:47:44;;;;;;;14.48;4.15;;;10.10;99.90;;;;;;5010645;28;20053;-73
2023/10/28 01:50:13;;;;;;;18.13;4.78;;;10.10;99.90;;;;;;5010851;28;20037;-74
2023/10/28 01:52:40;;;;;;;13.95;3.85;;;10.10;99.90;;;;;;5023670;28;20506;-73
2023/10/28 01:55:07;;;;;;;10.75;3.97;;;10.20;99.90;;;;;;5015221;28;20056;-75
2023/10/28 01:57:33;;;;;;;11.50;4.18;;;10.20;99.90;;;;;;5012360;28;20064;-72
2023/10/28 02:00:00;;;;;;;12.30;4.82;;;10.20;99.90;;;;;;5011575;28;20061;-73
2023/10/28 02:02:25;;;;;;;27.52;5.00;;;10.20;99.90;;;;;;5011069;28;20029;-75
2023/10/28 02:04:52;;;;;;;13.15;3.67;;;10.20;99.90;;;;;;5015897;28;20399;-72
2023/10/28 02:07:18;;;;;;;12.88;3.88;;;10.20;99.90;;;;;;5032851;28;21537;-74
2023/10/28 02:09:43;;;;;;;14.52;4.35;;;10.30;99.90;;;;;;5049756;28;20048;-73
2023/10/28 02:12:10;;;;;;;11.48;4.90;;;10.20;99.90;;;;;;5027528;28;20040;-73
2023/10/28 02:14:36;;;;;;;11.23;4.25;;;10.30;99.90;;;;;;5028786;28;20034;-76
2023/10/28 02:17:01;;;;;;;13.68;4.00;;;10.40;99.90;;;;;;5027726;28;20036;-73
2023/10/28 02:19:27;;;;;;;12.05;4.95;;;10.30;99.90;;;;;;5028216;28;20088;-73
2023/10/28 02:21:54;;;;;;;16.98;4.63;;;10.40;99.90;;;;;;5029760;28;20128;-73
2023/10/28 02:24:20;;;;;;;18.95;4.53;;;10.40;99.90;;;;;;5010741;28;20104;-74
2023/10/28 02:26:46;;;;;;;17.00;4.78;;;10.40;99.90;;;;;;5010074;28;20076;-73
2023/10/28 02:29:12;;;;;;;17.70;4.55;;;10.40;99.90;;;;;;5007507;28;20088;-72
2023/10/28 02:31:37;;;;;;;10.68;4.80;;;10.40;99.90;;;;;;5008305;28;20034;-73
2023/10/28 02:34:06;;;;;;;13.82;4.05;;;10.40;99.90;;;;;;5010917;28;20093;-74
2023/10/28 02:36:32;;;;;;;14.68;4.57;;;10.40;99.90;;;;;;4999592;28;20487;-76
2023/10/28 02:38:58;;;;;;;15.07;4.07;;;10.40;99.90;;;;;;5025061;28;20049;-73
2023/10/28 02:41:23;;;;;;;14.32;4.07;;;10.40;99.90;;;;;;5032754;28;20088;-73
2023/10/28 02:43:49;;;;;;;20.25;4.90;;;10.50;99.90;;;;;;5029316;28;20513;-73
2023/10/28 02:46:22;;;;;;;12.10;3.65;;;10.50;99.90;;;;;;5028509;28;20040;-74
2023/10/28 02:48:48;;;;;;;19.05;4.10;;;10.50;99.90;;;;;;5015750;28;20113;-73
2023/10/28 02:51:13;;;;;;;10.80;4.13;;;10.50;99.90;;;;;;5029845;28;20559;-74
2023/10/28 02:53:40;;;;;;;16.02;4.22;;;10.40;99.90;;;;;;5011337;28;20033;-73
2023/10/28 02:56:06;;;;;;;17.98;4.53;;;10.50;99.90;;;;;;5028091;28;20029;-73
2023/10/28 02:58:31;;;;;;;13.27;4.43;;;10.50;99.90;;;;;;5014999;28;20091;-74
2023/10/28 03:01:06;;;;;;;11.77;3.95;;;10.50;99.90;;;;;;5010418;28;20041;-72
2023/10/28 03:03:32;;;;;;;16.25;4.97;;;10.40;99.90;;;;;;5021938;28;20030;-72
2023/10/28 03:05:57;;;;;;;16.77;3.90;;;10.40;99.90;;;;;;4992045;28;20557;-74
2023/10/28 03:08:23;;;;;;;13.15;4.22;;;10.50;99.90;;;;;;4990941;28;20076;-75
2023/10/28 03:10:49;;;;;;;11.35;3.47;;;10.50;99.90;;;;;;5009276;28;20042;-75
2023/10/28 03:13:14;;;;;;;12.38;3.83;;;10.50;99.90;;;;;;5007983;28;20029;-72
2023/10/28 03:15:40;;;;;;;15.90;4.10;;;10.50;99.90;;;;;;5007211;28;20430;-75
2023/10/28 03:18:06;;;;;;;8.43;2.95;;;10.50;99.90;;;;;;5021031;28;20045;-74
2023/10/28 03:20:31;;;;;;;18.40;4.07;;;10.50;99.90;;;;;;5012529;28;20052;-73
2023/10/28 03:22:57;;;;;;;14.25;4.05;;;10.50;99.90;;;;;;5015230;28;20048;-73
2023/10/28 03:25:23;;;;;;;10.13;3.15;;;10.50;99.90;;;;;;5028696;28;20029;-73
2023/10/28 03:27:49;;;;;;;11.10;3.53;;;10.50;99.90;;;;;;5022573;28;20041;-73
2023/10/28 03:30:14;;;;;;;10.57;3.47;;;10.50;99.90;;;;;;5013980;28;20170;-73
2023/10/28 03:32:40;;;;;;;15.98;4.63;;;10.50;99.90;;;;;;5036501;28;20037;-75
2023/10/28 03:35:06;;;;;;;13.73;4.07;;;10.50;99.90;;;;;;5028017;28;20052;-73
2023/10/28 03:37:32;;;;;;;10.00;3.22;;;10.60;99.90;;;;;;5030150;28;20044;-73
2023/10/28 03:39:59;;;;;;;7.68;2.80;;;10.60;99.90;;;;;;5025092;28;20032;-73
2023/10/28 03:42:24;;;;;;;13.90;2.67;;;10.50;99.90;;;;;;5018077;28;20057;-74
2023/10/28 03:44:50;;;;;;;10.23;3.10;;;10.50;99.90;;;;;;5036517;28;20123;-74
2023/10/28 03:47:16;;;;;;;16.75;3.45;;;10.50;99.90;;;;;;5009109;28;20383;-73
2023/10/28 03:49:41;;;;;;;10.65;4.07;;;10.50;99.90;;;;;;5011094;28;20049;-72
2023/10/28 03:52:07;;;;;;;6.00;2.50;;;10.50;99.90;;;;;;5034002;28;20029;-76
2023/10/28 03:54:32;;;;;;;18.77;3.53;;;10.50;99.90;;;;;;5043063;28;20041;-73
2023/10/28 03:56:59;;;;;;;7.78;2.90;;;10.50;99.90;;;;;;5048074;28;20037;-72
2023/10/28 03:59:24;;;;;;;13.48;3.53;;;10.50;99.90;;;;;;5029258;28;21427;-74
2023/10/28 04:01:50;;;;;;;11.43;2.42;;;10.50;99.90;;;;;;5047759;28;20106;-74
2023/10/28 04:04:15;;;;;;;11.38;3.55;;;10.50;99.90;;;;;;5037920;28;20521;-74
2023/10/28 04:06:41;;;;;;;5.82;2.97;;;10.50;99.90;;;;;;5027761;28;20044;-73
2023/10/28 04:09:07;;;;;;;6.18;2.90;;;10.50;99.90;;;;;;5033895;28;20524;-75
2023/10/28 04:11:33;;;;;;;6.40;3.13;;;10.50;99.90;;;;;;5043120;28;20127;-76
2023/10/28 04:13:58;;;;;;;4.53;2.40;;;10.50;99.90;;;;;;5028679;28;20479;-73
2023/10/28 04:16:25;;;;;;;11.55;2.30;;;10.40;99.90;;;;;;5046205;28;20107;-75
2023/10/28 04:18:51;;;;;;;2.88;1.75;;;10.40;99.90;;;;;;5029022;28;20036;-74
2023/10/28 04:21:16;;;;;;;5.03;1.98;;;10.40;99.90;;;;;;5045849;28;20029;-73
2023/10/28 04:23:42;;;;;;;9.48;1.95;;;10.40;99.90;;;;;;5046750;28;20059;-74
2023/10/28 04:26:08;;;;;;;6.07;2.53;;;10.40;99.90;;;;;;5025012;28;20042;-73
2023/10/28 04:28:34;;;;;;;6.43;2.20;;;10.40;99.90;;;;;;5026114;28;20395;-73
2023/10/28 04:31:00;;;;;;;8.48;2.90;;;10.40;99.90;;;;;;5010541;28;20543;-73
2023/10/28 04:33:26;;;;;;;6.38;2.70;;;10.40;99.90;;;;;;5005647;28;20555;-74
2023/10/28 04:35:53;;;;;;;7.97;2.55;;;10.40;99.90;;;;;;5015603;28;20124;-74
2023/10/28 04:38:19;;;;;;;4.68;2.60;;;10.30;99.90;;;;;;5025072;28;20462;-73
2023/10/28 04:40:46;;;;;;;6.57;2.75;;;10.30;99.90;;;;;;5027366;28;20403;-73
2023/10/28 04:43:11;;;;;;;6.82;3.42;;;10.30;99.90;;;;;;5026222;28;20467;-74
2023/10/28 04:45:44;;;;;;;6.45;2.22;;;10.40;99.90;;;;;;5027000;28;20037;-74
2023/10/28 04:48:10;;;;;;;6.05;1.95;;;10.40;99.90;;;;;;5018244;28;20030;-74
2023/10/28 04:50:36;;;;;;;6.72;2.10;;;10.40;99.90;;;;;;5006000;28;20048;-74
2023/10/28 04:53:02;;;;;;;4.60;2.17;;;10.40;99.90;;;;;;5005828;28;20496;-73
2023/10/28 04:55:27;;;;;;;6.45;1.90;;;10.30;99.90;;;;;;5019993;28;20038;-72
2023/10/28 04:57:53;;;;;;;9.13;2.25;;;10.40;99.90;;;;;;5027083;28;20113;-74
2023/10/28 05:00:19;;;;;;;5.88;2.33;;;10.40;99.90;;;;;;5026191;28;20038;-75
2023/10/28 05:02:45;;;;;;;6.90;2.80;;;10.40;99.90;;;;;;5025669;28;20120;-74
2023/10/28 05:05:10;;;;;;;3.53;1.58;;;10.40;99.90;;;;;;5004823;28;20593;-74
2023/10/28 05:07:36;;;;;;;10.70;2.05;;;10.40;99.90;;;;;;5019125;28;20530;-73
2023/10/28 05:10:03;;;;;;;6.38;2.20;;;10.40;99.90;;;;;;5025438;28;20038;-73
2023/10/28 05:12:28;;;;;;;6.80;2.08;;;10.40;99.90;;;;;;5022363;28;21704;-73
2023/10/28 05:14:54;;;;;;;7.43;2.65;;;10.40;99.90;;;;;;5005818;28;20041;-72
2023/10/28 05:17:20;;;;;;;6.00;1.77;;;10.30;99.90;;;;;;5010729;28;20026;-73
2023/10/28 05:19:46;;;;;;;4.43;2.08;;;10.40;99.90;;;;;;5025519;28;20072;-74
2023/10/28 05:22:12;;;;;;;4.63;2.33;;;10.40;99.90;;;;;;5024507;28;20073;-74
2023/10/28 05:24:37;;;;;;;6.07;2.13;;;10.40;99.90;;;;;;5022291;28;20034;-74
2023/10/28 05:27:03;;;;;;;7.45;1.75;;;10.40;99.90;;;;;;5010495;28;20038;-74
2023/10/28 05:29:29;;;;;;;9.63;2.42;;;10.40;99.90;;;;;;5008995;28;20034;-73
2023/10/28 05:31:56;;;;;;;4.97;1.75;;;10.40;99.90;;;;;;5022026;28;20037;-73
2023/10/28 05:34:23;;;;;;;5.03;1.92;;;10.40;99.90;;;;;;5015179;28;20048;-74
2023/10/28 05:36:50;;;;;;;6.53;1.90;;;10.40;99.90;;;;;;5012316;28;20029;-74
2023/10/28 05:39:16;;;;;;;6.50;1.90;;;10.50;99.90;;;;;;5011566;28;20034;-72
2023/10/28 05:41:42;;;;;;;4.30;1.65;;;10.40;99.90;;;;;;5011994;28;20539;-73
2023/10/28 05:44:07;;;;;;;6.05;1.90;;;10.50;99.90;;;;;;5027365;28;20048;-75
2023/10/28 05:46:33;;;;;;;7.53;2.08;;;10.50;99.90;;;;;;5031967;28;20170;-75
2023/10/28 05:49:00;;;;;;;6.35;1.70;;;10.50;99.90;;;;;;5028067;28;20121;-74
2023/10/28 05:51:25;;;;;;;5.47;1.27;;;10.50;99.90;;;;;;5047671;28;20048;-73
2023/10/28 05:53:51;;;;;;;7.63;1.55;;;10.50;99.90;;;;;;5014251;28;20415;-73
2023/10/28 05:56:17;;;;;;;5.20;1.40;;;10.50;99.90;;;;;;5010898;28;20116;-74
2023/10/28 05:58:43;;;;;;;6.88;1.52;;;10.50;99.90;;;;;;5030111;28;20021;-74
2023/10/28 06:01:09;;;;;;;3.50;1.25;;;10.50;99.90;;;;;;5032043;28;20386;-75
2023/10/28 06:03:34;;;;;;;9.52;1.58;;;10.50;99.90;;;;;;5006565;28;20054;-74
2023/10/28 06:06:00;;;;;;;6.78;1.58;;;10.50;99.90;;;;;;4985640;28;20101;-75
2023/10/28 06:08:26;;;;;;;13.55;1.42;;;10.50;99.90;;;;;;4988753;28;20105;-74
2023/10/28 06:10:52;;;;;;;6.00;1.58;;;10.50;99.90;;;;;;4988762;28;20046;-74
2023/10/28 06:13:18;;;;;;;6.80;1.27;;;10.60;99.90;;;;;;4991416;28;20129;-74
2023/10/28 06:15:44;;;;;;;13.00;1.83;;;10.50;99.90;;;;;;5000475;28;20042;-73
2023/10/28 06:18:11;;;;;;;4.93;1.13;;;10.60;99.90;;;;;;5000767;28;20487;-74
2023/10/28 06:20:37;;;;;;;5.18;1.77;;;10.50;99.90;;;;;;5011995;28;20124;-74
2023/10/28 06:23:06;;;;;;;9.43;2.40;;;10.60;99.90;;;;;;5007714;28;20141;-74
2023/10/28 06:25:32;;;;;;;6.80;1.80;;;10.50;99.90;;;;;;5020929;28;20113;-73
2023/10/28 06:27:57;;;;;;;3.17;1.20;;;10.50;99.90;;;;;;5011934;28;20053;-74
2023/10/28 06:30:23;;;;;;;5.38;1.70;;;10.50;99.90;;;;;;5021140;28;20081;-73
2023/10/28 06:32:49;;;;;;;5.20;1.02;;;10.60;99.90;;;;;;5032935;28;20044;-72
2023/10/28 06:35:16;;;;;;;5.50;1.20;;;10.60;99.90;;;;;;5029936;28;20200;-74
2023/10/28 06:37:41;;;;;;;7.13;1.52;;;10.60;99.90;;;;;;5009693;28;20026;-73
2023/10/28 06:40:10;;;;;;;3.97;1.02;;;10.60;99.90;;;;;;5028803;28;20695;-74
2023/10/28 06:42:39;;;;;;;2.42;0.90;;;10.60;99.90;;;;;;5010702;28;20040;-74
2023/10/28 06:45:05;;;;;;;8.13;1.60;;;10.60;99.90;;;;;;5010539;28;20393;-73
2023/10/28 06:47:33;;;;;;;6.55;1.20;;;10.60;99.90;;;;;;5011119;28;20076;-74
2023/10/28 06:50:00;;;;;;;5.15;1.48;;;10.60;99.90;;;;;;5006638;28;20056;-74
2023/10/28 06:52:25;;;;;;;7.97;1.48;;;10.70;99.90;;;;;;5019074;28;20040;-73
2023/10/28 06:54:51;;;;;;;3.90;1.10;;;10.60;99.90;;;;;;5017239;28;20045;-76
2023/10/28 06:57:17;;;;;;;4.28;1.33;;;10.60;99.90;;;;;;5028109;28;20411;-73
2023/10/28 06:59:42;;;;;;;8.43;1.75;;;10.60;99.90;;;;;;5010985;28;20200;-74
2023/10/28 07:02:08;;;;;;;8.52;1.40;;;10.70;99.90;;;;;;5027503;28;20087;-74
2023/10/28 07:04:33;;;;;;;5.72;1.42;;;10.70;99.90;;;;;;5028442;28;20038;-73
2023/10/28 07:06:59;;;;;;;5.30;1.15;;;10.70;99.90;;;;;;5027745;28;20123;-74
2023/10/28 07:09:24;;;;;;;6.22;1.52;;;10.70;99.90;;;;;;5032205;28;20201;-73
2023/10/28 07:11:50;;;;;;;4.88;1.38;;;10.70;99.90;;;;;;5027375;28;20026;-72
2023/10/28 07:14:15;;;;;;;3.95;1.30;;;10.70;99.90;;;;;;5023791;28;20030;-73
2023/10/28 07:16:41;;;;;;;3.88;1.33;;;10.70;99.90;;;;;;5035824;28;20082;-75
2023/10/28 07:19:07;;;;;;;6.35;1.20;;;10.80;99.90;;;;;;5041178;28;20072;-72
2023/10/28 07:21:33;;;;;;;8.68;2.20;;;10.80;99.90;;;;;;5007024;28;20057;-74
2023/10/28 07:24:00;;;;;;;5.30;1.60;;;10.80;99.90;;;;;;5017728;28;20030;-74
2023/10/28 07:26:28;;;;;;;8.65;1.27;;;10.90;99.90;;;;;;5007730;28;20405;-73
2023/10/28 07:28:54;;;;;;;6.38;1.92;;;10.90;99.90;;;;;;5009673;28;20041;-74
2023/10/28 07:31:20;;;;;;;3.50;1.02;;;10.90;99.90;;;;;;5026535;28;20049;-73
2023/10/28 07:33:46;;;;;;;5.15;1.65;;;10.90;99.90;;;;;;5011235;28;20433;-72
2023/10/28 07:36:12;;;;;;;5.93;1.50;;;10.90;99.90;;;;;;5036746;28;20041;-73
2023/10/28 07:38:40;;;;;;;5.35;1.35;;;10.90;99.90;;;;;;5038410;28;20451;-74
2023/10/28 07:41:06;;;;;;;6.93;1.13;;;11.00;99.90;;;;;;5017806;28;20455;-74
2023/10/28 07:43:32;;;;;;;10.02;1.38;;;11.00;99.90;;;;;;5010325;28;20037;-73
2023/10/28 07:45:57;;;;;;;6.30;1.30;;;11.00;99.90;;;;;;5031860;28;20037;-73
2023/10/28 07:48:23;;;;;;;5.50;1.50;;;10.90;99.90;;;;;;5008141;28;20036;-74
2023/10/28 07:50:48;;;;;;;4.78;0.77;;;10.90;99.90;;;;;;5027793;28;20051;-74
2023/10/28 07:53:16;;;;;;;7.63;1.25;;;11.00;99.90;;;;;;5022048;28;20768;-73
2023/10/28 07:55:42;;;;;;;6.03;0.90;;;11.00;99.90;;;;;;5028110;28;20037;-72
2023/10/28 07:58:08;;;;;;;5.60;0.98;;;11.00;99.90;;;;;;5026950;28;20388;-72
2023/10/28 08:00:37;;;;;;;9.82;1.85;;;11.00;99.90;;;;;;5009734;28;20045;-73
2023/10/28 08:03:03;;;;;;;6.07;1.50;;;11.00;99.90;;;;;;5023378;28;20751;-74
2023/10/28 08:05:29;;;;;;;4.82;1.98;;;11.00;99.90;;;;;;5005175;28;20037;-72
2023/10/28 08:07:55;;;;;;;3.45;0.90;;;11.00;99.90;;;;;;5027807;28;20055;-75
2023/10/28 08:10:23;;;;;;;8.82;1.15;;;11.00;99.90;;;;;;5027274;28;20079;-74
2023/10/28 08:12:53;;;;;;;8.73;1.35;;;11.10;99.90;;;;;;5026305;28;20051;-73
2023/10/28 08:15:20;;;;;;;2.35;0.75;;;11.10;99.90;;;;;;5010426;28;20080;-73
2023/10/28 08:17:46;;;;;;;8.50;2.03;;;11.10;99.90;;;;;;5018539;28;20149;-73
2023/10/28 08:20:14;;;;;;;9.57;2.15;;;11.20;99.90;;;;;;5024307;28;20120;-73
2023/10/28 08:22:39;;;;;;;7.18;1.35;;;11.30;99.90;;;;;;5031702;28;20056;-73
2023/10/28 08:25:06;;;;;;;7.70;1.95;;;11.30;99.90;;;;;;5041856;28;20502;-74
2023/10/28 08:27:34;;;;;;;5.15;1.30;;;11.30;99.90;;;;;;5009610;28;20095;-74
2023/10/28 08:30:01;;;;;;;4.82;0.73;;;11.40;99.90;;;;;;5013225;28;20031;-74
2023/10/28 08:32:27;;;;;;;9.50;1.20;;;11.40;99.90;;;;;;5035843;28;20113;-74
2023/10/28 08:34:54;;;;;;;8.65;1.15;;;11.50;99.90;;;;;;4986235;28;20050;-74
2023/10/28 08:37:21;;;;;;;2.80;1.17;;;11.50;99.90;;;;;;5007859;28;20034;-74
2023/10/28 08:39:47;;;;;;;6.32;1.27;;;11.60;99.90;;;;;;5022691;28;21584;-74
2023/10/28 08:42:13;;;;;;;12.15;1.25;;;11.70;99.90;;;;;;5005197;28;20555;-74
2023/10/28 08:44:40;;;;;;;2.60;0.68;;;11.80;99.90;;;;;;5005010;28;20042;-75
2023/10/28 08:47:06;;;;;;;4.95;0.90;;;12.00;99.90;;;;;;5006744;28;20406;-74
2023/10/28 08:49:38;;;;;;;5.70;1.10;;;12.00;99.90;;;;;;5026871;28;20112;-74
2023/10/28 08:52:06;;;;;;;5.20;1.25;;;12.10;99.90;;;;;;5018525;28;20037;-75
2023/10/28 08:54:33;;;;;;;5.03;0.77;;;12.10;99.90;;;;;;5005204;28;20198;-73
2023/10/28 08:57:00;;;;;;;14.57;1.92;;;12.20;99.90;;;;;;5006005;28;20545;-75
2023/10/28 08:59:27;;;;;;;2.03;1.00;;;12.20;99.90;;;;;;5007064;28;20458;-74
2023/10/28 09:01:53;;;;;;;3.70;0.90;;;12.20;99.90;;;;;;5009923;28;20041;-75
2023/10/28 09:04:21;;;;;;;4.15;0.85;;;12.20;99.90;;;;;;4999219;28;20034;-74
2023/10/28 09:06:48;;;;;;;3.38;0.65;;;12.20;99.90;;;;;;5016085;28;20167;-74
2023/10/28 09:09:17;;;;;;;8.38;1.10;;;12.30;99.90;;;;;;5039259;28;20080;-74
2023/10/28 09:11:42;;;;;;;2.42;0.55;;;12.40;99.90;;;;;;5029537;28;20033;-73
2023/10/28 09:14:08;;;;;;;6.45;0.90;;;12.50;99.90;;;;;;5029897;28;20079;-74
2023/10/28 09:16:34;;;;;;;5.82;1.10;;;12.60;99.90;;;;;;5031820;28;20046;-72
2023/10/28 09:19:02;;;;;;;3.97;1.02;;;12.70;99.90;;;;;;5031077;28;20119;-75
2023/10/28 09:21:29;;;;;;;7.30;1.75;;;12.80;99.90;;;;;;5045168;28;20064;-72
2023/10/28 09:24:01;;;;;;;7.57;0.98;;;12.90;99.90;;;;;;5028049;28;20026;-74
2023/10/28 09:26:30;;;;;;;5.25;1.05;;;12.90;99.90;;;;;;5025001;28;20824;-74
2023/10/28 09:28:58;;;;;;;10.57;1.15;;;12.90;99.90;;;;;;5029688;28;20033;-73
2023/10/28 09:31:28;;;;;;;4.13;1.13;;;12.90;99.90;;;;;;5020394;28;20049;-73
2023/10/28 09:33:55;;;;;;;4.67;0.60;;;12.80;99.90;;;;;;5009833;28;20048;-74
2023/10/28 09:36:21;;;;;;;6.90;1.60;;;12.90;99.90;;;;;;5014282;28;20387;-73
2023/10/28 09:38:47;;;;;;;8.13;1.45;;;12.90;99.90;;;;;;5022961;28;20140;-72
2023/10/28 09:41:13;;;;;;;8.13;1.23;;;12.90;99.90;;;;;;5041321;28;20303;-73
2023/10/28 09:43:39;;;;;;;3.97;0.82;;;12.90;99.90;;;;;;5028945;28;20034;-73
2023/10/28 09:46:06;;;;;;;6.93;1.05;;;12.90;99.90;;;;;;5010642;28;20052;-74
2023/10/28 09:48:39;;;;;;;8.73;2.25;;;12.90;99.90;;;;;;5011106;28;20498;-73
2023/10/28 09:51:05;;;;;;;3.10;1.35;;;12.90;99.90;;;;;;5010798;28;20045;-73
2023/10/28 09:53:37;;;;;;;3.83;1.13;;;12.90;99.90;;;;;;5000007;28;20034;-73
2023/10/28 09:56:04;;;;;;;7.15;0.70;;;13.00;99.90;;;;;;5004513;28;20088;-72
2023/10/28 09:58:35;;;;;;;4.85;1.20;;;13.10;99.90;;;;;;5022621;28;20029;-73
2023/10/28 10:01:16;;;;;;;3.25;0.80;;;13.20;99.90;;;;;;5028731;28;20422;-74
2023/10/28 10:03:44;;;;;;;;;;;13.10;99.90;;;;;;5030446;28;20067;-74
2023/10/28 10:06:11;;;;;;;5.53;0.95;;;13.20;99.90;;;;;;5027635;28;19913;-73
2023/10/28 10:08:50;;;;;;;4.25;0.70;;;13.20;99.90;;;;;;5028982;28;20080;-73
2023/10/28 10:11:26;;;;;;;8.00;0.87;;;13.30;99.90;;;;;;5027043;28;20355;-74
2023/10/28 10:13:52;;;;;;;3.20;0.60;;;13.40;99.90;;;;;;5016504;28;20696;-73
2023/10/28 10:16:54;;;;;;;4.05;0.60;;;13.40;99.90;;;;;;5025620;28;20554;-75
2023/10/28 10:19:27;;;;;;;12.23;1.67;;;13.40;99.90;;;;;;5012532;28;20062;-72
2023/10/28 10:21:53;;;;;;;2.60;0.80;;;13.30;99.90;;;;;;5012407;28;20038;-73
2023/10/28 10:24:19;;;;;;;8.95;1.70;;;13.30;99.90;;;;;;5009144;28;20487;-73
2023/10/28 10:26:54;;;;;;;7.93;1.17;;;13.30;99.90;;;;;;5008701;28;20092;-73
2023/10/28 10:29:20;;;;;;;5.57;0.60;;;13.40;99.90;;;;;;5021414;28;20038;-73
2023/10/28 10:31:51;;;;;;;2.90;0.70;;;13.30;99.90;;;;;;5024267;28;20029;-76
2023/10/28 10:34:45;;;;;;;6.40;0.68;;;13.30;99.90;;;;;;5010006;28;20049;-74
2023/10/28 10:37:24;;;;;;;3.90;1.70;;;13.30;99.90;;;;;;5028116;28;20029;-75
2023/10/28 10:39:49;;;;;;;5.63;0.88;;;13.40;99.90;;;;;;5009052;28;20037;-73
2023/10/28 10:42:15;;;;;;;5.30;1.35;;;13.50;99.90;;;;;;4989422;28;20038;-74
2023/10/28 10:44:41;;;;;;;3.17;1.20;;;13.50;99.90;;;;;;5008605;28;20084;-73
2023/10/28 10:47:11;;;;;;;7.82;1.38;;;13.60;99.90;;;;;;5007312;28;20144;-74
2023/10/28 10:49:40;;;;;;;3.20;1.23;;;13.60;99.90;;;;;;5012264;28;20133;-75
2023/10/28 10:52:08;;;;;;;5.25;0.88;;;13.60;99.90;;;;;;5017113;28;20027;-75
2023/10/28 10:54:36;;;;;;;7.25;1.10;;;13.50;99.90;;;;;;5004169;28;20665;-74
2023/10/28 10:57:03;;;;;;;2.63;1.02;;;13.50;99.90;;;;;;5020162;28;20092;-74
2023/10/28 10:59:31;;;;;;;3.17;0.77;;;13.40;99.90;;;;;;5015869;28;20113;-73
2023/10/28 11:01:57;;;;;;;2.05;0.50;;;13.30;99.90;;;;;;5019609;28;20499;-72
2023/10/28 11:04:25;;;;;;;5.00;0.65;;;13.30;99.90;;;;;;5011270;28;20026;-74
2023/10/28 11:06:51;;;;;;;4.13;0.63;;;13.40;99.90;;;;;;4996647;28;20038;-73
2023/10/28 11:09:17;;;;;;;2.92;0.90;;;13.30;99.90;;;;;;4993449;28;20471;-75
2023/10/28 11:11:43;;;;;;;4.60;0.70;;;13.30;99.90;;;;;;5004945;28;20018;-74
2023/10/28 11:14:09;;;;;;;6.57;0.60;;;13.50;99.90;;;;;;5013343;28;20108;-74
2023/10/28 11:16:35;;;;;;;6.18;0.70;;;13.60;99.90;;;;;;5008463;28;20026;-74
2023/10/28 11:19:04;;;;;;;3.95;0.90;;;13.60;99.90;;;;;;5007498;28;20133;-73
2023/10/28 11:21:31;;;;;;;3.80;1.10;;;13.60;99.90;;;;;;5007704;28;20125;-71
2023/10/28 11:23:57;;;;;;;3.00;0.70;;;13.60;99.90;;;;;;5015542;28;20030;-75
2023/10/28 11:26:23;;;;;;;3.50;0.68;;;13.60;99.90;;;;;;5009052;28;20040;-73
2023/10/28 11:28:49;;;;;;;3.70;0.60;;;13.60;99.90;;;;;;5009739;28;20107;-73
2023/10/28 11:31:19;;;;;;;1.40;0.38;;;13.70;99.90;;;;;;5022334;28;20037;-73
2023/10/28 11:33:45;;;;;;;5.97;1.23;;;13.60;99.90;;;;;;5028952;28;20406;-75
2023/10/28 11:36:11;;;;;;;3.50;0.82;;;13.60;99.90;;;;;;5034264;28;20087;-74
2023/10/28 11:38:37;;;;;;;11.75;0.80;;;13.60;99.90;;;;;;5038787;28;20545;-74
2023/10/28 11:41:07;;;;;;;6.85;0.60;;;13.50;99.90;;;;;;5012595;28;20454;-74
2023/10/28 11:43:33;;;;;;;;;;;13.50;99.90;;;;;;4995938;28;20490;-73
2023/10/28 11:45:59;;;;;;;2.22;0.50;;;13.40;99.90;;;;;;5019848;28;19940;-73
2023/10/28 11:48:26;;;;;;;9.45;1.05;;;13.30;99.90;;;;;;5015537;28;20049;-73
2023/10/28 11:50:52;;;;;;;7.15;1.35;;;13.30;99.90;;;;;;5025670;28;20060;-73
2023/10/28 11:53:25;;;;;;;8.65;1.35;;;13.30;99.90;;;;;;5008981;28;20711;-75
2023/10/28 11:55:52;;;;;;;3.95;0.88;;;13.30;99.90;;;;;;5027520;28;20802;-74
2023/10/28 11:58:18;;;;;;;8.85;1.13;;;13.30;99.90;;;;;;5024296;28;20060;-74
2023/10/28 12:00:45;;;;;;;8.73;1.58;;;13.30;99.90;;;;;;5025788;28;20088;-74
2023/10/28 12:03:11;;;;;;;8.30;1.25;;;13.30;99.90;;;;;;5013073;28;20109;-74
2023/10/28 12:05:38;;;;;;;4.68;0.70;;;13.30;99.90;;;;;;5024418;28;20037;-74
2023/10/28 12:08:04;;;;;;;6.90;1.63;;;13.30;99.90;;;;;;5025261;28;20531;-73
2023/10/28 12:10:32;;;;;;;3.90;0.88;;;13.40;99.90;;;;;;5015717;28;20041;-73
2023/10/28 12:12:57;;;;;;;7.93;1.35;;;13.50;99.90;;;;;;5010960;28;20030;-74
2023/10/28 12:15:23;;;;;;;5.68;0.95;;;13.60;99.90;;;;;;5004280;28;20032;-75
2023/10/28 12:17:49;;;;;;;7.57;1.42;;;13.70;99.90;;;;;;5005675;28;20069;-73
2023/10/28 12:20:14;;;;;;;6.95;0.88;;;13.70;99.90;;;;;;4997356;28;20033;-75
2023/10/28 12:22:41;;;;;;;4.88;0.95;;;13.80;99.90;;;;;;5013215;28;20088;-74
2023/10/28 12:25:09;;;;;;;4.07;1.50;;;13.90;99.90;;;;;;5019229;28;20033;-74
2023/10/28 12:27:36;;;;;;;6.18;1.45;;;13.90;99.90;;;;;;5002148;28;20523;-74
2023/10/28 12:30:06;;;;;;;8.43;0.75;;;14.00;99.90;;;;;;4999246;28;20035;-74
2023/10/28 12:32:34;;;;;;;6.57;1.25;;;14.00;99.90;;;;;;4995957;28;20042;-73
2023/10/28 12:35:00;;;;;;;6.45;1.00;;;14.00;99.90;;;;;;5000578;28;20038;-75
2023/10/28 12:37:29;;;;;;;7.57;1.67;;;14.10;99.90;;;;;;5010419;28;20038;-74
2023/10/28 12:39:55;;;;;;;13.38;1.95;;;14.00;99.90;;;;;;5024811;28;20455;-74
2023/10/28 12:42:21;;;;;;;9.77;1.40;;;14.00;99.90;;;;;;5010389;28;20049;-74
2023/10/28 12:44:46;;;;;;;7.55;1.40;;;14.00;99.90;;;;;;5011852;28;20040;-74